Webcams

Webcam1&2         Webcam1 (Zeitraffer 2 Std.)        Webcam2 (Zeitraffer 2 Std.)

Webcam2 - Zeitraffer (die letzten zwei Stunden, Intervall: 10min)
cam2--20190823_065959M
cam2--20190823_070958M
cam2--20190823_071959M
cam2--20190823_072958M
cam2--20190823_073958M
cam2--20190823_074957M
cam2--20190823_075958M
cam2--20190823_080958M
cam2--20190823_081959M
cam2--20190823_082957M
cam2--20190823_083958M
cam2--20190823_084958M
cam2--20190823_085958M
01/13 
start stop bwd fwd

Webcam2 - Aktuell

Lokale Serverzeit 09:00 | 23.08.2019
Webcam-Lageplan

Flugwetter

[source: ADDS]
METAR
LOWL 230650Z 07003KT 9999 FEW030 BKN036 18/16 Q1026 NOSIG =
TAF LOWL 230515Z 2306/2406 10007KT 9999 BKN030 TX25/2315Z TN17/2403Z BECMG 2316/2318 07003KT SCT040
TAF
TAF LOWL 230515Z 2306/2406 10007KT 9999 BKN030 TX25/2315Z TN17/2403Z BECMG 2316/2318 07003KT SCT040 =